sensor_id;sensor_type;location;lat;lon;timestamp;P1;P2;P0
31163;PMS5003;17796;49.296;-117.656;2023-12-07T00:12:38;7;5;
31163;PMS5003;17796;49.296;-117.656;2023-12-07T00:27:41;7;7;
31163;PMS5003;17796;49.296;-117.656;2023-12-07T00:42:45;8;7;
31163;PMS5003;17796;49.296;-117.656;2023-12-07T00:57:49;3;3;
31163;PMS5003;17796;49.296;-117.656;2023-12-07T01:12:53;5;5;
31163;PMS5003;17796;49.296;-117.656;2023-12-07T01:27:56;8;7;
31163;PMS5003;17796;49.296;-117.656;2023-12-07T01:43:00;5;4;
31163;PMS5003;17796;49.296;-117.656;2023-12-07T01:58:04;7;4;
31163;PMS5003;17796;49.296;-117.656;2023-12-07T02:13:08;7;5;
31163;PMS5003;17796;49.296;-117.656;2023-12-07T02:28:12;8;7;
31163;PMS5003;17796;49.296;-117.656;2023-12-07T02:43:15;8;5;
31163;PMS5003;17796;49.296;-117.656;2023-12-07T02:58:21;4;4;
31163;PMS5003;17796;49.296;-117.656;2023-12-07T03:13:25;2;2;
31163;PMS5003;17796;49.296;-117.656;2023-12-07T03:28:29;8;8;
31163;PMS5003;17796;49.296;-117.656;2023-12-07T03:43:33;5;3;
31163;PMS5003;17796;49.296;-117.656;2023-12-07T03:58:36;4;3;
31163;PMS5003;17796;49.296;-117.656;2023-12-07T04:13:41;1;1;
31163;PMS5003;17796;49.296;-117.656;2023-12-07T04:28:44;1;1;
31163;PMS5003;17796;49.296;-117.656;2023-12-07T04:43:48;1;1;
31163;PMS5003;17796;49.296;-117.656;2023-12-07T04:58:52;0;0;
31163;PMS5003;17796;49.296;-117.656;2023-12-07T05:13:56;0;0;
31163;PMS5003;17796;49.296;-117.656;2023-12-07T05:29:01;0;0;
31163;PMS5003;17796;49.296;-117.656;2023-12-07T05:44:07;0;0;
31163;PMS5003;17796;49.296;-117.656;2023-12-07T05:59:10;0;0;
31163;PMS5003;17796;49.296;-117.656;2023-12-07T06:14:14;2;1;
31163;PMS5003;17796;49.296;-117.656;2023-12-07T06:29:17;4;3;
31163;PMS5003;17796;49.296;-117.656;2023-12-07T06:44:21;1;0;
31163;PMS5003;17796;49.296;-117.656;2023-12-07T06:59:24;1;1;
31163;PMS5003;17796;49.296;-117.656;2023-12-07T07:14:28;3;3;
31163;PMS5003;17796;49.296;-117.656;2023-12-07T07:29:32;7;7;
31163;PMS5003;17796;49.296;-117.656;2023-12-07T07:44:35;13;13;
31163;PMS5003;17796;49.296;-117.656;2023-12-07T07:59:39;5;5;
31163;PMS5003;17796;49.296;-117.656;2023-12-07T08:14:42;1;1;
31163;PMS5003;17796;49.296;-117.656;2023-12-07T08:29:46;2;2;
31163;PMS5003;17796;49.296;-117.656;2023-12-07T08:44:50;0;0;
31163;PMS5003;17796;49.296;-117.656;2023-12-07T08:59:53;0;0;
31163;PMS5003;17796;49.296;-117.656;2023-12-07T09:14:57;1;1;
31163;PMS5003;17796;49.296;-117.656;2023-12-07T09:30:00;5;3;
31163;PMS5003;17796;49.296;-117.656;2023-12-07T09:45:05;1;1;
31163;PMS5003;17796;49.296;-117.656;2023-12-07T10:00:11;1;1;
31163;PMS5003;17796;49.296;-117.656;2023-12-07T10:15:17;1;1;
31163;PMS5003;17796;49.296;-117.656;2023-12-07T10:30:22;1;1;
31163;PMS5003;17796;49.296;-117.656;2023-12-07T10:45:30;2;0;
31163;PMS5003;17796;49.296;-117.656;2023-12-07T11:00:34;0;0;
31163;PMS5003;17796;49.296;-117.656;2023-12-07T11:15:38;3;3;
31163;PMS5003;17796;49.296;-117.656;2023-12-07T11:30:44;5;5;
31163;PMS5003;17796;49.296;-117.656;2023-12-07T11:45:49;11;11;
31163;PMS5003;17796;49.296;-117.656;2023-12-07T12:00:54;10;8;
31163;PMS5003;17796;49.296;-117.656;2023-12-07T12:15:58;5;5;
31163;PMS5003;17796;49.296;-117.656;2023-12-07T12:31:01;5;5;
31163;PMS5003;17796;49.296;-117.656;2023-12-07T12:46:05;9;9;
31163;PMS5003;17796;49.296;-117.656;2023-12-07T13:01:09;15;15;
31163;PMS5003;17796;49.296;-117.656;2023-12-07T13:16:14;18;16;
31163;PMS5003;17796;49.296;-117.656;2023-12-07T13:31:18;13;10;
31163;PMS5003;17796;49.296;-117.656;2023-12-07T13:46:21;5;5;
31163;PMS5003;17796;49.296;-117.656;2023-12-07T14:01:26;8;8;
31163;PMS5003;17796;49.296;-117.656;2023-12-07T14:16:30;10;8;
31163;PMS5003;17796;49.296;-117.656;2023-12-07T14:31:33;8;4;
31163;PMS5003;17796;49.296;-117.656;2023-12-07T14:46:37;4;2;
31163;PMS5003;17796;49.296;-117.656;2023-12-07T15:01:41;5;5;
31163;PMS5003;17796;49.296;-117.656;2023-12-07T15:16:44;7;7;
31163;PMS5003;17796;49.296;-117.656;2023-12-07T15:31:48;13;7;
31163;PMS5003;17796;49.296;-117.656;2023-12-07T15:46:52;4;4;
31163;PMS5003;17796;49.296;-117.656;2023-12-07T16:01:55;7;5;
31163;PMS5003;17796;49.296;-117.656;2023-12-07T16:16:59;7;7;
31163;PMS5003;17796;49.296;-117.656;2023-12-07T16:32:03;5;5;
31163;PMS5003;17796;49.296;-117.656;2023-12-07T16:47:06;1;1;
31163;PMS5003;17796;49.296;-117.656;2023-12-07T17:02:10;1;1;
31163;PMS5003;17796;49.296;-117.656;2023-12-07T17:17:14;2;1;
31163;PMS5003;17796;49.296;-117.656;2023-12-07T17:32:18;5;3;
31163;PMS5003;17796;49.296;-117.656;2023-12-07T17:47:22;2;2;
31163;PMS5003;17796;49.296;-117.656;2023-12-07T18:02:25;5;4;
31163;PMS5003;17796;49.296;-117.656;2023-12-07T18:17:29;4;4;
31163;PMS5003;17796;49.296;-117.656;2023-12-07T18:32:33;3;3;
31163;PMS5003;17796;49.296;-117.656;2023-12-07T18:47:36;1;1;
31163;PMS5003;17796;49.296;-117.656;2023-12-07T19:02:40;2;2;
31163;PMS5003;17796;49.296;-117.656;2023-12-07T19:17:44;3;3;
31163;PMS5003;17796;49.296;-117.656;2023-12-07T19:32:48;4;3;
31163;PMS5003;17796;49.296;-117.656;2023-12-07T19:47:52;4;4;
31163;PMS5003;17796;49.296;-117.656;2023-12-07T20:02:56;8;5;
31163;PMS5003;17796;49.296;-117.656;2023-12-07T20:17:59;10;8;
31163;PMS5003;17796;49.296;-117.656;2023-12-07T20:33:03;8;5;
31163;PMS5003;17796;49.296;-117.656;2023-12-07T20:48:06;7;5;
31163;PMS5003;17796;49.296;-117.656;2023-12-07T21:03:10;7;7;
31163;PMS5003;17796;49.296;-117.656;2023-12-07T21:18:14;10;7;
31163;PMS5003;17796;49.296;-117.656;2023-12-07T21:33:17;9;7;
31163;PMS5003;17796;49.296;-117.656;2023-12-07T21:48:21;12;9;
31163;PMS5003;17796;49.296;-117.656;2023-12-07T22:03:25;11;7;
31163;PMS5003;17796;49.296;-117.656;2023-12-07T22:18:28;9;8;
31163;PMS5003;17796;49.296;-117.656;2023-12-07T22:33:32;9;8;
31163;PMS5003;17796;49.296;-117.656;2023-12-07T22:48:35;11;7;
31163;PMS5003;17796;49.296;-117.656;2023-12-07T23:03:39;9;5;
31163;PMS5003;17796;49.296;-117.656;2023-12-07T23:18:42;16;9;
31163;PMS5003;17796;49.296;-117.656;2023-12-07T23:33:46;13;9;
31163;PMS5003;17796;49.296;-117.656;2023-12-07T23:48:51;14;10;
